sensor_id;sensor_type;location;lat;lon;timestamp;temperature;humidity
22069;DHT22;13887;57.196;-2.100;2022-07-06T00:01:50;15.29;68.68
22069;DHT22;13887;57.196;-2.100;2022-07-06T00:04:17;15.28;68.90
22069;DHT22;13887;57.196;-2.100;2022-07-06T00:06:44;15.29;69.00
22069;DHT22;13887;57.196;-2.100;2022-07-06T00:09:11;15.29;69.10
22069;DHT22;13887;57.196;-2.100;2022-07-06T00:11:37;15.30;69.24
22069;DHT22;13887;57.196;-2.100;2022-07-06T00:14:04;15.31;68.91
22069;DHT22;13887;57.196;-2.100;2022-07-06T00:16:31;15.32;68.58
22069;DHT22;13887;57.196;-2.100;2022-07-06T00:18:57;15.31;68.55
22069;DHT22;13887;57.196;-2.100;2022-07-06T00:21:23;15.33;68.48
22069;DHT22;13887;57.196;-2.100;2022-07-06T00:23:50;15.31;68.56
22069;DHT22;13887;57.196;-2.100;2022-07-06T00:26:18;15.31;68.39
22069;DHT22;13887;57.196;-2.100;2022-07-06T00:28:45;15.31;68.62
22069;DHT22;13887;57.196;-2.100;2022-07-06T00:31:11;15.31;68.71
22069;DHT22;13887;57.196;-2.100;2022-07-06T00:33:38;15.29;69.00
22069;DHT22;13887;57.196;-2.100;2022-07-06T00:36:04;15.28;68.94
22069;DHT22;13887;57.196;-2.100;2022-07-06T00:38:31;15.30;69.07
22069;DHT22;13887;57.196;-2.100;2022-07-06T00:40:57;15.31;68.97
22069;DHT22;13887;57.196;-2.100;2022-07-06T00:43:23;15.31;69.29
22069;DHT22;13887;57.196;-2.100;2022-07-06T00:45:50;15.29;69.48
22069;DHT22;13887;57.196;-2.100;2022-07-06T00:48:16;15.26;69.66
22069;DHT22;13887;57.196;-2.100;2022-07-06T00:50:42;15.26;69.87
22069;DHT22;13887;57.196;-2.100;2022-07-06T00:53:09;15.25;69.97
22069;DHT22;13887;57.196;-2.100;2022-07-06T00:55:38;15.25;70.08
22069;DHT22;13887;57.196;-2.100;2022-07-06T00:58:08;15.26;70.07
22069;DHT22;13887;57.196;-2.100;2022-07-06T01:00:35;15.25;70.08
22069;DHT22;13887;57.196;-2.100;2022-07-06T01:03:02;15.26;69.88
22069;DHT22;13887;57.196;-2.100;2022-07-06T01:05:29;15.25;70.12
22069;DHT22;13887;57.196;-2.100;2022-07-06T01:07:55;15.25;70.35
22069;DHT22;13887;57.196;-2.100;2022-07-06T01:10:23;15.25;70.46
22069;DHT22;13887;57.196;-2.100;2022-07-06T01:12:49;15.22;70.32
22069;DHT22;13887;57.196;-2.100;2022-07-06T01:15:18;15.26;70.61
22069;DHT22;13887;57.196;-2.100;2022-07-06T01:17:45;15.24;70.63
22069;DHT22;13887;57.196;-2.100;2022-07-06T01:20:22;15.22;70.46
22069;DHT22;13887;57.196;-2.100;2022-07-06T01:22:50;15.23;70.32
22069;DHT22;13887;57.196;-2.100;2022-07-06T01:25:17;15.22;70.57
22069;DHT22;13887;57.196;-2.100;2022-07-06T01:27:44;15.24;70.58
22069;DHT22;13887;57.196;-2.100;2022-07-06T01:30:13;15.23;71.09
22069;DHT22;13887;57.196;-2.100;2022-07-06T01:32:40;15.21;70.93
22069;DHT22;13887;57.196;-2.100;2022-07-06T01:35:09;15.19;71.02
22069;DHT22;13887;57.196;-2.100;2022-07-06T01:37:36;15.22;71.04
22069;DHT22;13887;57.196;-2.100;2022-07-06T01:40:08;15.24;70.87
22069;DHT22;13887;57.196;-2.100;2022-07-06T01:42:35;15.24;70.75
22069;DHT22;13887;57.196;-2.100;2022-07-06T01:45:02;15.22;71.21
22069;DHT22;13887;57.196;-2.100;2022-07-06T01:47:28;15.21;70.95
22069;DHT22;13887;57.196;-2.100;2022-07-06T01:49:58;15.21;71.16
22069;DHT22;13887;57.196;-2.100;2022-07-06T01:52:26;15.24;71.50
22069;DHT22;13887;57.196;-2.100;2022-07-06T01:54:54;15.19;70.96
22069;DHT22;13887;57.196;-2.100;2022-07-06T01:57:22;15.21;70.95
22069;DHT22;13887;57.196;-2.100;2022-07-06T01:59:48;15.21;71.22
22069;DHT22;13887;57.196;-2.100;2022-07-06T02:02:16;15.21;71.35
22069;DHT22;13887;57.196;-2.100;2022-07-06T02:04:43;15.19;71.32
22069;DHT22;13887;57.196;-2.100;2022-07-06T02:07:10;15.17;71.42
22069;DHT22;13887;57.196;-2.100;2022-07-06T02:09:36;15.16;71.26
22069;DHT22;13887;57.196;-2.100;2022-07-06T02:12:03;15.18;71.38
22069;DHT22;13887;57.196;-2.100;2022-07-06T02:14:29;15.17;70.97
22069;DHT22;13887;57.196;-2.100;2022-07-06T02:16:57;15.18;71.61
22069;DHT22;13887;57.196;-2.100;2022-07-06T02:19:23;15.18;71.38
22069;DHT22;13887;57.196;-2.100;2022-07-06T02:21:49;15.17;71.38
22069;DHT22;13887;57.196;-2.100;2022-07-06T02:24:16;15.16;71.83
22069;DHT22;13887;57.196;-2.100;2022-07-06T02:26:42;15.15;71.47
22069;DHT22;13887;57.196;-2.100;2022-07-06T02:29:09;15.14;71.64
22069;DHT22;13887;57.196;-2.100;2022-07-06T02:31:35;15.14;71.64
22069;DHT22;13887;57.196;-2.100;2022-07-06T02:34:01;15.15;71.84
22069;DHT22;13887;57.196;-2.100;2022-07-06T02:36:28;15.14;71.84
22069;DHT22;13887;57.196;-2.100;2022-07-06T02:38:54;15.12;71.80
22069;DHT22;13887;57.196;-2.100;2022-07-06T02:41:21;15.13;71.91
22069;DHT22;13887;57.196;-2.100;2022-07-06T02:43:47;15.13;72.03
22069;DHT22;13887;57.196;-2.100;2022-07-06T02:46:15;15.12;72.18
22069;DHT22;13887;57.196;-2.100;2022-07-06T02:48:42;15.12;72.08
22069;DHT22;13887;57.196;-2.100;2022-07-06T02:51:09;15.12;72.12
22069;DHT22;13887;57.196;-2.100;2022-07-06T02:53:35;15.12;72.07
22069;DHT22;13887;57.196;-2.100;2022-07-06T02:56:02;15.12;72.35
22069;DHT22;13887;57.196;-2.100;2022-07-06T02:58:29;15.12;72.30
22069;DHT22;13887;57.196;-2.100;2022-07-06T03:00:55;15.12;72.28
22069;DHT22;13887;57.196;-2.100;2022-07-06T03:03:22;15.11;72.31
22069;DHT22;13887;57.196;-2.100;2022-07-06T03:05:48;15.12;72.16
22069;DHT22;13887;57.196;-2.100;2022-07-06T03:08:17;15.11;72.37
22069;DHT22;13887;57.196;-2.100;2022-07-06T03:10:43;15.11;72.34
22069;DHT22;13887;57.196;-2.100;2022-07-06T03:13:10;15.12;72.12
22069;DHT22;13887;57.196;-2.100;2022-07-06T03:15:37;15.11;72.71
22069;DHT22;13887;57.196;-2.100;2022-07-06T03:18:03;15.11;72.53
22069;DHT22;13887;57.196;-2.100;2022-07-06T03:20:30;15.11;72.65
22069;DHT22;13887;57.196;-2.100;2022-07-06T03:22:56;15.11;72.39
22069;DHT22;13887;57.196;-2.100;2022-07-06T03:25:23;15.12;72.64
22069;DHT22;13887;57.196;-2.100;2022-07-06T03:27:50;15.12;72.30
22069;DHT22;13887;57.196;-2.100;2022-07-06T03:30:18;15.13;72.43
22069;DHT22;13887;57.196;-2.100;2022-07-06T03:32:50;15.13;72.09
22069;DHT22;13887;57.196;-2.100;2022-07-06T03:35:18;15.13;72.23
22069;DHT22;13887;57.196;-2.100;2022-07-06T03:37:46;15.12;72.44
22069;DHT22;13887;57.196;-2.100;2022-07-06T03:40:13;15.13;72.41
22069;DHT22;13887;57.196;-2.100;2022-07-06T03:42:41;15.13;72.58
22069;DHT22;13887;57.196;-2.100;2022-07-06T03:45:09;15.14;72.49
22069;DHT22;13887;57.196;-2.100;2022-07-06T03:47:36;15.14;72.42
22069;DHT22;13887;57.196;-2.100;2022-07-06T03:50:03;15.14;72.58
22069;DHT22;13887;57.196;-2.100;2022-07-06T03:52:29;15.13;72.51
22069;DHT22;13887;57.196;-2.100;2022-07-06T03:54:56;15.14;72.42
22069;DHT22;13887;57.196;-2.100;2022-07-06T03:57:27;15.15;72.55
22069;DHT22;13887;57.196;-2.100;2022-07-06T03:59:56;15.14;72.48
22069;DHT22;13887;57.196;-2.100;2022-07-06T04:02:23;15.13;72.40
22069;DHT22;13887;57.196;-2.100;2022-07-06T04:04:51;15.15;72.35
22069;DHT22;13887;57.196;-2.100;2022-07-06T04:07:17;15.14;72.17
22069;DHT22;13887;57.196;-2.100;2022-07-06T04:09:44;15.15;72.43
22069;DHT22;13887;57.196;-2.100;2022-07-06T04:12:10;15.15;72.47
22069;DHT22;13887;57.196;-2.100;2022-07-06T04:14:41;15.14;72.45
22069;DHT22;13887;57.196;-2.100;2022-07-06T04:17:08;15.15;72.39
22069;DHT22;13887;57.196;-2.100;2022-07-06T04:19:54;15.14;72.50
22069;DHT22;13887;57.196;-2.100;2022-07-06T04:22:20;15.14;72.51
22069;DHT22;13887;57.196;-2.100;2022-07-06T04:24:46;15.14;72.34
22069;DHT22;13887;57.196;-2.100;2022-07-06T04:27:12;15.14;72.04
22069;DHT22;13887;57.196;-2.100;2022-07-06T04:29:39;15.15;72.28
22069;DHT22;13887;57.196;-2.100;2022-07-06T04:32:05;15.15;72.10
22069;DHT22;13887;57.196;-2.100;2022-07-06T04:34:32;15.14;72.38
22069;DHT22;13887;57.196;-2.100;2022-07-06T04:36:58;15.16;72.32
22069;DHT22;13887;57.196;-2.100;2022-07-06T04:39:25;15.16;72.49
22069;DHT22;13887;57.196;-2.100;2022-07-06T04:41:51;15.15;72.06
22069;DHT22;13887;57.196;-2.100;2022-07-06T04:44:18;15.15;72.25
22069;DHT22;13887;57.196;-2.100;2022-07-06T04:46:45;15.17;72.22
22069;DHT22;13887;57.196;-2.100;2022-07-06T04:49:11;15.17;72.23
22069;DHT22;13887;57.196;-2.100;2022-07-06T04:51:38;15.17;72.25
22069;DHT22;13887;57.196;-2.100;2022-07-06T04:54:05;15.17;72.26
22069;DHT22;13887;57.196;-2.100;2022-07-06T04:56:33;15.17;72.22
22069;DHT22;13887;57.196;-2.100;2022-07-06T04:58:59;15.18;72.05
22069;DHT22;13887;57.196;-2.100;2022-07-06T05:01:25;15.19;72.06
22069;DHT22;13887;57.196;-2.100;2022-07-06T05:03:52;15.19;71.87
22069;DHT22;13887;57.196;-2.100;2022-07-06T05:06:21;15.19;72.01
22069;DHT22;13887;57.196;-2.100;2022-07-06T05:08:47;15.22;71.87
22069;DHT22;13887;57.196;-2.100;2022-07-06T05:11:14;15.21;72.03
22069;DHT22;13887;57.196;-2.100;2022-07-06T05:13:41;15.21;72.06
22069;DHT22;13887;57.196;-2.100;2022-07-06T05:16:08;15.24;72.06
22069;DHT22;13887;57.196;-2.100;2022-07-06T05:18:34;15.24;71.87
22069;DHT22;13887;57.196;-2.100;2022-07-06T05:21:02;15.22;71.94
22069;DHT22;13887;57.196;-2.100;2022-07-06T05:23:29;15.24;71.83
22069;DHT22;13887;57.196;-2.100;2022-07-06T05:25:56;15.23;72.11
22069;DHT22;13887;57.196;-2.100;2022-07-06T05:28:23;15.22;72.02
22069;DHT22;13887;57.196;-2.100;2022-07-06T05:30:50;15.24;71.82
22069;DHT22;13887;57.196;-2.100;2022-07-06T05:33:17;15.24;71.76
22069;DHT22;13887;57.196;-2.100;2022-07-06T05:35:44;15.25;71.87
22069;DHT22;13887;57.196;-2.100;2022-07-06T05:38:24;15.27;71.88
22069;DHT22;13887;57.196;-2.100;2022-07-06T05:40:51;15.26;71.84
22069;DHT22;13887;57.196;-2.100;2022-07-06T05:43:18;15.27;72.03
22069;DHT22;13887;57.196;-2.100;2022-07-06T05:45:44;15.27;71.62
22069;DHT22;13887;57.196;-2.100;2022-07-06T05:48:11;15.26;72.06
22069;DHT22;13887;57.196;-2.100;2022-07-06T05:50:56;15.27;72.01
22069;DHT22;13887;57.196;-2.100;2022-07-06T05:53:23;15.28;72.24
22069;DHT22;13887;57.196;-2.100;2022-07-06T05:55:52;15.28;72.02
22069;DHT22;13887;57.196;-2.100;2022-07-06T05:58:19;15.29;72.31
22069;DHT22;13887;57.196;-2.100;2022-07-06T06:00:46;15.28;71.91
22069;DHT22;13887;57.196;-2.100;2022-07-06T06:03:17;15.28;72.00
22069;DHT22;13887;57.196;-2.100;2022-07-06T06:05:44;15.29;72.06
22069;DHT22;13887;57.196;-2.100;2022-07-06T06:08:12;15.28;71.83
22069;DHT22;13887;57.196;-2.100;2022-07-06T06:10:38;15.28;71.71
22069;DHT22;13887;57.196;-2.100;2022-07-06T06:13:08;15.28;71.99
22069;DHT22;13887;57.196;-2.100;2022-07-06T06:15:35;15.28;72.00
22069;DHT22;13887;57.196;-2.100;2022-07-06T06:18:03;15.29;72.09
22069;DHT22;13887;57.196;-2.100;2022-07-06T06:20:32;15.29;72.16
22069;DHT22;13887;57.196;-2.100;2022-07-06T06:22:59;15.29;72.05
22069;DHT22;13887;57.196;-2.100;2022-07-06T06:27:55;15.30;72.00
22069;DHT22;13887;57.196;-2.100;2022-07-06T06:30:22;15.37;71.90
22069;DHT22;13887;57.196;-2.100;2022-07-06T06:32:48;15.43;73.86
22069;DHT22;13887;57.196;-2.100;2022-07-06T06:35:14;15.44;73.12
22069;DHT22;13887;57.196;-2.100;2022-07-06T06:37:41;15.40;73.15
22069;DHT22;13887;57.196;-2.100;2022-07-06T06:40:08;15.38;73.62
22069;DHT22;13887;57.196;-2.100;2022-07-06T06:42:37;15.38;73.66
22069;DHT22;13887;57.196;-2.100;2022-07-06T06:45:08;15.37;73.77
22069;DHT22;13887;57.196;-2.100;2022-07-06T06:47:34;15.37;73.57
22069;DHT22;13887;57.196;-2.100;2022-07-06T06:50:00;15.36;73.73
22069;DHT22;13887;57.196;-2.100;2022-07-06T06:52:27;15.34;73.27
22069;DHT22;13887;57.196;-2.100;2022-07-06T06:55:08;15.34;73.11
22069;DHT22;13887;57.196;-2.100;2022-07-06T06:57:35;15.34;73.03
22069;DHT22;13887;57.196;-2.100;2022-07-06T07:00:03;15.36;73.99
22069;DHT22;13887;57.196;-2.100;2022-07-06T07:02:29;15.33;73.64
22069;DHT22;13887;57.196;-2.100;2022-07-06T07:04:56;15.32;74.46
22069;DHT22;13887;57.196;-2.100;2022-07-06T07:07:22;15.36;76.66
22069;DHT22;13887;57.196;-2.100;2022-07-06T07:09:48;15.31;75.02
22069;DHT22;13887;57.196;-2.100;2022-07-06T07:12:14;15.30;75.60
22069;DHT22;13887;57.196;-2.100;2022-07-06T07:14:44;15.33;76.61
22069;DHT22;13887;57.196;-2.100;2022-07-06T07:17:10;15.29;76.44
22069;DHT22;13887;57.196;-2.100;2022-07-06T07:19:37;15.30;77.58
22069;DHT22;13887;57.196;-2.100;2022-07-06T07:22:04;15.29;76.95
22069;DHT22;13887;57.196;-2.100;2022-07-06T07:24:30;15.30;76.38
22069;DHT22;13887;57.196;-2.100;2022-07-06T07:26:57;15.31;76.87
22069;DHT22;13887;57.196;-2.100;2022-07-06T07:29:23;15.32;79.24
22069;DHT22;13887;57.196;-2.100;2022-07-06T07:31:49;15.30;76.67
22069;DHT22;13887;57.196;-2.100;2022-07-06T07:34:16;15.32;77.25
22069;DHT22;13887;57.196;-2.100;2022-07-06T07:36:43;15.31;77.12
22069;DHT22;13887;57.196;-2.100;2022-07-06T07:39:09;15.31;76.86
22069;DHT22;13887;57.196;-2.100;2022-07-06T07:41:35;15.31;77.38
22069;DHT22;13887;57.196;-2.100;2022-07-06T07:44:02;15.31;77.14
22069;DHT22;13887;57.196;-2.100;2022-07-06T07:46:28;15.33;76.41
22069;DHT22;13887;57.196;-2.100;2022-07-06T07:48:54;15.33;76.24
22069;DHT22;13887;57.196;-2.100;2022-07-06T07:51:21;15.33;75.86
22069;DHT22;13887;57.196;-2.100;2022-07-06T07:53:48;15.34;76.92
22069;DHT22;13887;57.196;-2.100;2022-07-06T07:56:14;15.34;77.27
22069;DHT22;13887;57.196;-2.100;2022-07-06T07:58:40;15.36;77.42
22069;DHT22;13887;57.196;-2.100;2022-07-06T08:01:07;15.36;76.57
22069;DHT22;13887;57.196;-2.100;2022-07-06T08:03:33;15.40;77.84
22069;DHT22;13887;57.196;-2.100;2022-07-06T08:06:00;15.37;76.84
22069;DHT22;13887;57.196;-2.100;2022-07-06T08:08:26;15.40;76.99
22069;DHT22;13887;57.196;-2.100;2022-07-06T08:10:53;15.41;76.83
22069;DHT22;13887;57.196;-2.100;2022-07-06T08:13:39;15.42;76.66
22069;DHT22;13887;57.196;-2.100;2022-07-06T08:16:06;15.41;75.70
22069;DHT22;13887;57.196;-2.100;2022-07-06T08:18:32;15.41;75.99
22069;DHT22;13887;57.196;-2.100;2022-07-06T08:21:00;15.41;76.15
22069;DHT22;13887;57.196;-2.100;2022-07-06T08:23:46;15.41;75.96
22069;DHT22;13887;57.196;-2.100;2022-07-06T08:26:12;15.42;76.28
22069;DHT22;13887;57.196;-2.100;2022-07-06T08:28:43;15.42;76.16
22069;DHT22;13887;57.196;-2.100;2022-07-06T08:31:09;15.44;76.02
22069;DHT22;13887;57.196;-2.100;2022-07-06T08:33:56;15.44;75.88
22069;DHT22;13887;57.196;-2.100;2022-07-06T08:36:23;15.45;75.96
22069;DHT22;13887;57.196;-2.100;2022-07-06T08:38:49;15.45;75.97
22069;DHT22;13887;57.196;-2.100;2022-07-06T08:41:16;15.47;75.87
22069;DHT22;13887;57.196;-2.100;2022-07-06T08:43:51;15.47;75.99
22069;DHT22;13887;57.196;-2.100;2022-07-06T08:46:18;15.51;75.73
22069;DHT22;13887;57.196;-2.100;2022-07-06T08:48:45;15.49;75.95
22069;DHT22;13887;57.196;-2.100;2022-07-06T08:51:13;15.52;75.97
22069;DHT22;13887;57.196;-2.100;2022-07-06T08:53:42;15.52;75.84
22069;DHT22;13887;57.196;-2.100;2022-07-06T08:56:08;15.54;75.66
22069;DHT22;13887;57.196;-2.100;2022-07-06T08:58:35;15.57;75.47
22069;DHT22;13887;57.196;-2.100;2022-07-06T09:01:01;15.57;75.38
22069;DHT22;13887;57.196;-2.100;2022-07-06T09:03:28;15.59;75.32
22069;DHT22;13887;57.196;-2.100;2022-07-06T09:06:01;15.60;75.41
22069;DHT22;13887;57.196;-2.100;2022-07-06T09:08:30;15.61;75.36
22069;DHT22;13887;57.196;-2.100;2022-07-06T09:10:57;15.61;75.27
22069;DHT22;13887;57.196;-2.100;2022-07-06T09:13:23;15.62;75.38
22069;DHT22;13887;57.196;-2.100;2022-07-06T09:15:50;15.61;75.31
22069;DHT22;13887;57.196;-2.100;2022-07-06T09:18:37;15.62;75.34
22069;DHT22;13887;57.196;-2.100;2022-07-06T09:21:04;15.62;75.32
22069;DHT22;13887;57.196;-2.100;2022-07-06T09:23:32;15.63;75.26
22069;DHT22;13887;57.196;-2.100;2022-07-06T09:26:02;15.65;75.44
22069;DHT22;13887;57.196;-2.100;2022-07-06T09:28:42;15.66;75.51
22069;DHT22;13887;57.196;-2.100;2022-07-06T09:31:10;15.67;75.40
22069;DHT22;13887;57.196;-2.100;2022-07-06T09:41:48;15.69;75.66
22069;DHT22;13887;57.196;-2.100;2022-07-06T09:44:20;15.70;75.70
22069;DHT22;13887;57.196;-2.100;2022-07-06T09:46:47;15.72;75.48
22069;DHT22;13887;57.196;-2.100;2022-07-06T09:49:18;15.71;75.54
22069;DHT22;13887;57.196;-2.100;2022-07-06T09:51:48;15.73;75.53
22069;DHT22;13887;57.196;-2.100;2022-07-06T09:54:15;15.74;75.70
22069;DHT22;13887;57.196;-2.100;2022-07-06T09:56:45;15.77;75.79
22069;DHT22;13887;57.196;-2.100;2022-07-06T09:59:24;15.78;75.83
22069;DHT22;13887;57.196;-2.100;2022-07-06T10:01:52;15.82;75.92
22069;DHT22;13887;57.196;-2.100;2022-07-06T10:04:19;15.84;76.16
22069;DHT22;13887;57.196;-2.100;2022-07-06T10:06:47;15.87;76.70
22069;DHT22;13887;57.196;-2.100;2022-07-06T10:09:14;15.87;76.26
22069;DHT22;13887;57.196;-2.100;2022-07-06T10:14:30;15.92;76.71
22069;DHT22;13887;57.196;-2.100;2022-07-06T10:16:58;15.95;76.56
22069;DHT22;13887;57.196;-2.100;2022-07-06T10:19:25;15.98;77.20
22069;DHT22;13887;57.196;-2.100;2022-07-06T10:21:52;16.01;77.67
22069;DHT22;13887;57.196;-2.100;2022-07-06T10:24:21;16.04;77.11
22069;DHT22;13887;57.196;-2.100;2022-07-06T10:26:48;16.05;76.66
22069;DHT22;13887;57.196;-2.100;2022-07-06T10:29:15;16.08;76.70
22069;DHT22;13887;57.196;-2.100;2022-07-06T10:31:45;16.10;77.11
22069;DHT22;13887;57.196;-2.100;2022-07-06T10:34:15;16.07;77.12
22069;DHT22;13887;57.196;-2.100;2022-07-06T10:36:48;16.08;77.02
22069;DHT22;13887;57.196;-2.100;2022-07-06T10:39:14;16.08;77.36
22069;DHT22;13887;57.196;-2.100;2022-07-06T10:41:59;16.08;77.18
22069;DHT22;13887;57.196;-2.100;2022-07-06T10:44:26;16.06;77.21
22069;DHT22;13887;57.196;-2.100;2022-07-06T10:46:55;16.08;77.24
22069;DHT22;13887;57.196;-2.100;2022-07-06T10:49:22;16.13;77.00
22069;DHT22;13887;57.196;-2.100;2022-07-06T10:52:09;16.13;77.69
22069;DHT22;13887;57.196;-2.100;2022-07-06T10:54:39;16.14;77.34
22069;DHT22;13887;57.196;-2.100;2022-07-06T10:57:10;16.16;77.24
22069;DHT22;13887;57.196;-2.100;2022-07-06T10:59:37;16.18;78.07
22069;DHT22;13887;57.196;-2.100;2022-07-06T11:02:16;16.20;77.39
22069;DHT22;13887;57.196;-2.100;2022-07-06T11:04:47;16.24;77.63
22069;DHT22;13887;57.196;-2.100;2022-07-06T11:07:16;16.26;77.85
22069;DHT22;13887;57.196;-2.100;2022-07-06T11:10:02;16.29;77.60
22069;DHT22;13887;57.196;-2.100;2022-07-06T11:12:29;16.29;77.53
22069;DHT22;13887;57.196;-2.100;2022-07-06T11:14:55;16.30;77.85
22069;DHT22;13887;57.196;-2.100;2022-07-06T11:17:21;16.33;77.53
22069;DHT22;13887;57.196;-2.100;2022-07-06T11:19:50;16.34;77.67
22069;DHT22;13887;57.196;-2.100;2022-07-06T11:22:17;16.36;77.74
22069;DHT22;13887;57.196;-2.100;2022-07-06T11:24:47;16.36;77.69
22069;DHT22;13887;57.196;-2.100;2022-07-06T11:27:13;16.37;77.65
22069;DHT22;13887;57.196;-2.100;2022-07-06T11:29:40;16.39;77.63
22069;DHT22;13887;57.196;-2.100;2022-07-06T11:32:08;16.35;77.53
22069;DHT22;13887;57.196;-2.100;2022-07-06T11:34:39;16.35;77.40
22069;DHT22;13887;57.196;-2.100;2022-07-06T11:37:11;16.36;77.52
22069;DHT22;13887;57.196;-2.100;2022-07-06T11:39:40;16.40;77.47
22069;DHT22;13887;57.196;-2.100;2022-07-06T11:42:07;16.39;77.65
22069;DHT22;13887;57.196;-2.100;2022-07-06T11:44:34;16.40;77.43
22069;DHT22;13887;57.196;-2.100;2022-07-06T11:47:02;16.41;77.47
22069;DHT22;13887;57.196;-2.100;2022-07-06T11:49:33;16.42;77.49
22069;DHT22;13887;57.196;-2.100;2022-07-06T11:52:09;16.42;77.78
22069;DHT22;13887;57.196;-2.100;2022-07-06T11:54:36;16.42;77.62
22069;DHT22;13887;57.196;-2.100;2022-07-06T11:57:03;16.43;77.69
22069;DHT22;13887;57.196;-2.100;2022-07-06T11:59:32;16.43;77.76
22069;DHT22;13887;57.196;-2.100;2022-07-06T12:02:06;16.45;77.87
22069;DHT22;13887;57.196;-2.100;2022-07-06T12:04:34;16.46;77.67
22069;DHT22;13887;57.196;-2.100;2022-07-06T12:07:03;16.46;77.57
22069;DHT22;13887;57.196;-2.100;2022-07-06T12:09:33;16.46;77.66
22069;DHT22;13887;57.196;-2.100;2022-07-06T12:12:00;16.47;77.66
22069;DHT22;13887;57.196;-2.100;2022-07-06T12:14:29;16.47;77.66
22069;DHT22;13887;57.196;-2.100;2022-07-06T12:16:56;16.47;77.96
22069;DHT22;13887;57.196;-2.100;2022-07-06T12:19:22;16.47;77.75
22069;DHT22;13887;57.196;-2.100;2022-07-06T12:21:50;16.48;77.67
22069;DHT22;13887;57.196;-2.100;2022-07-06T12:24:22;16.50;77.56
22069;DHT22;13887;57.196;-2.100;2022-07-06T12:26:49;16.52;77.66
22069;DHT22;13887;57.196;-2.100;2022-07-06T12:29:16;16.51;77.75
22069;DHT22;13887;57.196;-2.100;2022-07-06T12:31:51;16.51;77.63
22069;DHT22;13887;57.196;-2.100;2022-07-06T12:34:22;16.52;77.91
22069;DHT22;13887;57.196;-2.100;2022-07-06T12:36:57;16.52;77.82
22069;DHT22;13887;57.196;-2.100;2022-07-06T12:39:46;16.54;78.06
22069;DHT22;13887;57.196;-2.100;2022-07-06T12:42:17;16.55;77.92
22069;DHT22;13887;57.196;-2.100;2022-07-06T12:44:48;16.57;77.74
22069;DHT22;13887;57.196;-2.100;2022-07-06T12:47:21;16.59;77.89
22069;DHT22;13887;57.196;-2.100;2022-07-06T12:50:06;16.59;77.71
22069;DHT22;13887;57.196;-2.100;2022-07-06T12:52:32;16.62;78.05
22069;DHT22;13887;57.196;-2.100;2022-07-06T12:55:00;16.63;77.89
22069;DHT22;13887;57.196;-2.100;2022-07-06T12:57:48;16.67;77.67
22069;DHT22;13887;57.196;-2.100;2022-07-06T13:00:15;16.70;78.09
22069;DHT22;13887;57.196;-2.100;2022-07-06T13:02:44;16.73;78.09
22069;DHT22;13887;57.196;-2.100;2022-07-06T13:05:31;16.76;77.87
22069;DHT22;13887;57.196;-2.100;2022-07-06T13:07:58;16.77;78.24
22069;DHT22;13887;57.196;-2.100;2022-07-06T13:10:25;16.79;78.10
22069;DHT22;13887;57.196;-2.100;2022-07-06T13:12:52;16.80;78.05
22069;DHT22;13887;57.196;-2.100;2022-07-06T13:15:18;16.84;78.05
22069;DHT22;13887;57.196;-2.100;2022-07-06T13:17:45;16.87;77.95
22069;DHT22;13887;57.196;-2.100;2022-07-06T13:20:13;16.92;77.73
22069;DHT22;13887;57.196;-2.100;2022-07-06T13:22:39;16.98;78.11
22069;DHT22;13887;57.196;-2.100;2022-07-06T13:25:06;17.06;77.56
22069;DHT22;13887;57.196;-2.100;2022-07-06T13:27:33;17.09;77.44
22069;DHT22;13887;57.196;-2.100;2022-07-06T13:29:59;17.13;77.18
22069;DHT22;13887;57.196;-2.100;2022-07-06T13:32:26;17.19;77.65
22069;DHT22;13887;57.196;-2.100;2022-07-06T13:34:52;17.22;77.42
22069;DHT22;13887;57.196;-2.100;2022-07-06T13:37:19;17.29;77.34
22069;DHT22;13887;57.196;-2.100;2022-07-06T13:39:46;17.33;76.37
22069;DHT22;13887;57.196;-2.100;2022-07-06T13:42:13;17.37;75.75
22069;DHT22;13887;57.196;-2.100;2022-07-06T13:44:39;17.37;75.41
22069;DHT22;13887;57.196;-2.100;2022-07-06T13:47:05;17.36;75.50
22069;DHT22;13887;57.196;-2.100;2022-07-06T13:49:31;17.38;75.68
22069;DHT22;13887;57.196;-2.100;2022-07-06T13:51:58;17.43;75.51
22069;DHT22;13887;57.196;-2.100;2022-07-06T13:54:30;17.43;75.53
22069;DHT22;13887;57.196;-2.100;2022-07-06T13:56:56;17.43;75.98
22069;DHT22;13887;57.196;-2.100;2022-07-06T13:59:22;17.43;75.37
22069;DHT22;13887;57.196;-2.100;2022-07-06T14:01:49;17.40;75.21
22069;DHT22;13887;57.196;-2.100;2022-07-06T14:04:15;17.43;75.06
22069;DHT22;13887;57.196;-2.100;2022-07-06T14:06:41;17.41;75.08
22069;DHT22;13887;57.196;-2.100;2022-07-06T14:09:08;17.45;74.84
22069;DHT22;13887;57.196;-2.100;2022-07-06T14:11:34;17.45;74.72
22069;DHT22;13887;57.196;-2.100;2022-07-06T14:14:00;17.44;74.69
22069;DHT22;13887;57.196;-2.100;2022-07-06T14:16:27;17.44;75.15
22069;DHT22;13887;57.196;-2.100;2022-07-06T14:18:53;17.41;75.01
22069;DHT22;13887;57.196;-2.100;2022-07-06T14:21:20;17.40;74.76
22069;DHT22;13887;57.196;-2.100;2022-07-06T14:23:46;17.44;74.80
22069;DHT22;13887;57.196;-2.100;2022-07-06T14:26:14;17.46;74.43
22069;DHT22;13887;57.196;-2.100;2022-07-06T14:28:40;17.47;74.63
22069;DHT22;13887;57.196;-2.100;2022-07-06T14:31:07;17.45;74.52
22069;DHT22;13887;57.196;-2.100;2022-07-06T14:33:33;17.46;74.34
22069;DHT22;13887;57.196;-2.100;2022-07-06T14:35:59;17.47;74.42
22069;DHT22;13887;57.196;-2.100;2022-07-06T14:38:26;17.49;74.32
22069;DHT22;13887;57.196;-2.100;2022-07-06T14:40:53;17.51;73.95
22069;DHT22;13887;57.196;-2.100;2022-07-06T14:43:19;17.52;74.08
22069;DHT22;13887;57.196;-2.100;2022-07-06T14:45:47;17.50;74.26
22069;DHT22;13887;57.196;-2.100;2022-07-06T14:48:14;17.49;73.97
22069;DHT22;13887;57.196;-2.100;2022-07-06T14:50:40;17.50;73.79
22069;DHT22;13887;57.196;-2.100;2022-07-06T14:53:06;17.49;73.57
22069;DHT22;13887;57.196;-2.100;2022-07-06T14:55:33;17.49;73.07
22069;DHT22;13887;57.196;-2.100;2022-07-06T14:57:59;17.48;73.20
22069;DHT22;13887;57.196;-2.100;2022-07-06T15:00:25;17.54;73.19
22069;DHT22;13887;57.196;-2.100;2022-07-06T15:02:52;17.49;73.46
22069;DHT22;13887;57.196;-2.100;2022-07-06T15:05:18;17.48;73.65
22069;DHT22;13887;57.196;-2.100;2022-07-06T15:07:44;17.46;73.92
22069;DHT22;13887;57.196;-2.100;2022-07-06T15:10:18;17.45;74.29
22069;DHT22;13887;57.196;-2.100;2022-07-06T15:12:44;17.45;74.31
22069;DHT22;13887;57.196;-2.100;2022-07-06T15:15:10;17.46;74.12
22069;DHT22;13887;57.196;-2.100;2022-07-06T15:17:57;17.43;74.53
22069;DHT22;13887;57.196;-2.100;2022-07-06T15:20:23;17.38;74.70
22069;DHT22;13887;57.196;-2.100;2022-07-06T15:22:49;17.38;74.58
22069;DHT22;13887;57.196;-2.100;2022-07-06T15:25:15;17.36;75.35
22069;DHT22;13887;57.196;-2.100;2022-07-06T15:27:42;17.32;76.66
22069;DHT22;13887;57.196;-2.100;2022-07-06T15:30:08;17.23;78.00
22069;DHT22;13887;57.196;-2.100;2022-07-06T15:32:55;17.15;80.14
22069;DHT22;13887;57.196;-2.100;2022-07-06T15:35:21;17.09;80.14